Карточка аэропорта URSS

Внимание!
Информация на этой странице в стадии наполнения.
Если вы не увидели какой-то информации, или заметили неточность - пожалуйста сообщите нам!
Спасибо!
Команда RU-STAFF
Название аэропортаСочи
Название аэропорта (англ.)Sochi
Превышение89 ft. (27.1 m.)
Координаты43°26.634', 39°56.55'
Высота перехода13000 ft
Эшелон переходаQNH>=977hPa: FL150; QNH<977hPa: FL160
Коды ответчика1060-1077
Зона ОрВДРостов-на-Дону РПИ (URRV)
Данные METARURSS 122100Z 03006MPS 9999 NSC 23/20 Q1007 R02/010070 R06/010070 NOSIG RMK R06/07004MPS QFE754
Проноз погоды (TAF)URSS 121955Z 1221/1321 05003G08MPS 9999 FEW016 BECMG 1300/1302 04006MPS BECMG 1306/1307 25004G09MPS FEW030 SCT100 BECMG 1308/1309 28006G11MPS FEW030CB TEMPO 1309/1315 -TSRA BECMG 1318/1320 05003G08MPS NSC
NOTAMshow/hide NOTAM
AWOS   TABLE

Информация о ВПП

ВПП Длина ВПП (м.) Покрытие Курс ВПП Частота ILS
062890Цементобетон58111.1
242890Цементобетон238 
022500Цементобетон22110.5
202500Цементобетон202 

Диспетчерские позиции

Позывной Наименование органа УВД Частота
URSS_DELСочи-Деливери132.700
URSS_APPСочи-Подход124.600
URSS_TWRСочи-Старт121.200
URSS_R_APPСочи-Круг119.700
URSS_GNDСочи-Руление119.000
URSSFM1119.000



Спутниковое изображение